Terminal Aerodrome Forecast
Issued by NWS

Home | Current Version | Previous Version | Text Only | Print | Product List | Glossary On
Versions: 1 2 3 4 5 6 7 8 9 10 11 12 13
000
FTUS45 KABQ 282146 AAA
TAFTCC
TAF AMD
KTCC 282146Z 2822/2918 18015G24KT P6SM VCTS SCT080CB BKN130
      TEMPO 2822/2824 VRB25G35KT 5SM TSRA BKN060CB
     FM290100 16010KT P6SM VCSH BKN080 OVC130
     FM290400 21008KT P6SM SCT140
     FM291400 06011G21KT P6SM FEW025 SCT150=

USA.gov is the U.S. government's official web portal to all federal, state and local government web resources and services.